sensor_id;sensor_type;location;lat;lon;timestamp;P1;durP1;ratioP1;P2;durP2;ratioP2
40459;SDS011;26164;51.138;16.952;2024-02-26T00:00:19;32.03;;;13.25;;
40459;SDS011;26164;51.138;16.952;2024-02-26T00:03:08;30.15;;;13.63;;
40459;SDS011;26164;51.138;16.952;2024-02-26T00:05:40;32.33;;;14.38;;
40459;SDS011;26164;51.138;16.952;2024-02-26T00:08:21;28.67;;;13.45;;
40459;SDS011;26164;51.138;16.952;2024-02-26T00:11:10;25.52;;;12.95;;
40459;SDS011;26164;51.138;16.952;2024-02-26T00:14:00;31.65;;;13.10;;
40459;SDS011;26164;51.138;16.952;2024-02-26T00:16:39;26.00;;;12.68;;
40459;SDS011;26164;51.138;16.952;2024-02-26T00:19:07;30.27;;;13.20;;
40459;SDS011;26164;51.138;16.952;2024-02-26T00:21:39;29.65;;;12.90;;
40459;SDS011;26164;51.138;16.952;2024-02-26T00:24:07;31.60;;;13.55;;
40459;SDS011;26164;51.138;16.952;2024-02-26T00:26:48;31.52;;;13.77;;
40459;SDS011;26164;51.138;16.952;2024-02-26T00:29:27;34.60;;;14.07;;
40459;SDS011;26164;51.138;16.952;2024-02-26T00:31:56;34.05;;;14.20;;
40459;SDS011;26164;51.138;16.952;2024-02-26T00:59:31;53.58;;;22.52;;
40459;SDS011;26164;51.138;16.952;2024-02-26T01:02:10;47.47;;;23.13;;
40459;SDS011;26164;51.138;16.952;2024-02-26T01:08:13;58.08;;;26.52;;
40459;SDS011;26164;51.138;16.952;2024-02-26T01:11:48;57.10;;;27.52;;
40459;SDS011;26164;51.138;16.952;2024-02-26T01:15:17;53.95;;;25.73;;
40459;SDS011;26164;51.138;16.952;2024-02-26T01:19:02;53.88;;;25.52;;
40459;SDS011;26164;51.138;16.952;2024-02-26T01:21:39;54.92;;;26.40;;
40459;SDS011;26164;51.138;16.952;2024-02-26T01:24:29;57.00;;;27.48;;
40459;SDS011;26164;51.138;16.952;2024-02-26T01:27:19;54.13;;;26.90;;
40459;SDS011;26164;51.138;16.952;2024-02-26T01:30:16;51.20;;;24.35;;
40459;SDS011;26164;51.138;16.952;2024-02-26T01:32:48;47.25;;;23.17;;
40459;SDS011;26164;51.138;16.952;2024-02-26T01:35:52;45.03;;;22.23;;
40459;SDS011;26164;51.138;16.952;2024-02-26T01:38:55;42.67;;;22.70;;
40459;SDS011;26164;51.138;16.952;2024-02-26T01:45:23;39.00;;;20.88;;
40459;SDS011;26164;51.138;16.952;2024-02-26T01:47:50;46.90;;;21.67;;
40459;SDS011;26164;51.138;16.952;2024-02-26T01:50:22;43.03;;;20.45;;
40459;SDS011;26164;51.138;16.952;2024-02-26T01:52:51;44.63;;;21.65;;
40459;SDS011;26164;51.138;16.952;2024-02-26T01:55:32;37.35;;;19.30;;
40459;SDS011;26164;51.138;16.952;2024-02-26T01:58:01;50.08;;;23.45;;
40459;SDS011;26164;51.138;16.952;2024-02-26T02:00:28;40.67;;;20.13;;
40459;SDS011;26164;51.138;16.952;2024-02-26T02:03:09;44.40;;;21.25;;
40459;SDS011;26164;51.138;16.952;2024-02-26T02:05:36;47.90;;;22.95;;
40459;SDS011;26164;51.138;16.952;2024-02-26T02:08:07;45.80;;;23.30;;
40459;SDS011;26164;51.138;16.952;2024-02-26T02:10:38;50.80;;;24.05;;
40459;SDS011;26164;51.138;16.952;2024-02-26T02:13:04;51.50;;;24.73;;
40459;SDS011;26164;51.138;16.952;2024-02-26T02:15:31;49.05;;;24.88;;
40459;SDS011;26164;51.138;16.952;2024-02-26T02:17:57;51.00;;;24.55;;
40459;SDS011;26164;51.138;16.952;2024-02-26T02:20:38;49.20;;;25.20;;
40459;SDS011;26164;51.138;16.952;2024-02-26T02:23:05;53.42;;;26.13;;
40459;SDS011;26164;51.138;16.952;2024-02-26T02:25:32;61.25;;;29.13;;
40459;SDS011;26164;51.138;16.952;2024-02-26T02:28:01;59.70;;;30.75;;
40459;SDS011;26164;51.138;16.952;2024-02-26T02:30:28;64.43;;;30.90;;
40459;SDS011;26164;51.138;16.952;2024-02-26T02:32:57;60.15;;;29.58;;
40459;SDS011;26164;51.138;16.952;2024-02-26T02:35:24;60.35;;;30.40;;
40459;SDS011;26164;51.138;16.952;2024-02-26T02:37:52;68.03;;;30.60;;
40459;SDS011;26164;51.138;16.952;2024-02-26T02:40:20;64.28;;;31.20;;
40459;SDS011;26164;51.138;16.952;2024-02-26T02:42:46;62.30;;;31.63;;
40459;SDS011;26164;51.138;16.952;2024-02-26T02:45:12;66.47;;;31.38;;
40459;SDS011;26164;51.138;16.952;2024-02-26T02:47:48;61.58;;;30.80;;
40459;SDS011;26164;51.138;16.952;2024-02-26T02:50:16;57.85;;;29.42;;
40459;SDS011;26164;51.138;16.952;2024-02-26T02:52:43;58.85;;;30.85;;
40459;SDS011;26164;51.138;16.952;2024-02-26T02:55:09;54.30;;;27.95;;
40459;SDS011;26164;51.138;16.952;2024-02-26T02:57:37;62.15;;;29.35;;
40459;SDS011;26164;51.138;16.952;2024-02-26T03:00:07;59.50;;;28.05;;
40459;SDS011;26164;51.138;16.952;2024-02-26T03:02:40;54.20;;;26.30;;
40459;SDS011;26164;51.138;16.952;2024-02-26T03:05:09;57.85;;;27.15;;
40459;SDS011;26164;51.138;16.952;2024-02-26T03:07:49;52.65;;;25.05;;
40459;SDS011;26164;51.138;16.952;2024-02-26T03:10:21;54.38;;;26.63;;
40459;SDS011;26164;51.138;16.952;2024-02-26T03:12:47;52.08;;;26.65;;
40459;SDS011;26164;51.138;16.952;2024-02-26T03:15:15;53.85;;;24.98;;
40459;SDS011;26164;51.138;16.952;2024-02-26T03:17:43;57.63;;;25.83;;
40459;SDS011;26164;51.138;16.952;2024-02-26T03:20:13;53.42;;;26.83;;
40459;SDS011;26164;51.138;16.952;2024-02-26T03:22:50;55.90;;;26.95;;
40459;SDS011;26164;51.138;16.952;2024-02-26T03:25:26;55.00;;;25.52;;
40459;SDS011;26164;51.138;16.952;2024-02-26T03:27:56;55.53;;;27.17;;
40459;SDS011;26164;51.138;16.952;2024-02-26T03:30:28;54.67;;;28.27;;
40459;SDS011;26164;51.138;16.952;2024-02-26T03:32:59;55.40;;;26.00;;
40459;SDS011;26164;51.138;16.952;2024-02-26T03:35:32;53.90;;;26.38;;
40459;SDS011;26164;51.138;16.952;2024-02-26T03:38:06;51.55;;;27.27;;
40459;SDS011;26164;51.138;16.952;2024-02-26T03:40:47;55.47;;;28.52;;
40459;SDS011;26164;51.138;16.952;2024-02-26T03:43:13;56.85;;;27.25;;
40459;SDS011;26164;51.138;16.952;2024-02-26T03:45:40;54.47;;;27.52;;
40459;SDS011;26164;51.138;16.952;2024-02-26T03:48:06;54.80;;;27.05;;
40459;SDS011;26164;51.138;16.952;2024-02-26T03:50:33;50.28;;;26.52;;
40459;SDS011;26164;51.138;16.952;2024-02-26T03:53:00;57.78;;;28.17;;
40459;SDS011;26164;51.138;16.952;2024-02-26T03:55:27;58.42;;;27.60;;
40459;SDS011;26164;51.138;16.952;2024-02-26T03:57:52;54.05;;;28.02;;
40459;SDS011;26164;51.138;16.952;2024-02-26T04:00:20;59.28;;;28.75;;
40459;SDS011;26164;51.138;16.952;2024-02-26T04:02:46;54.83;;;27.92;;
40459;SDS011;26164;51.138;16.952;2024-02-26T04:05:13;57.95;;;28.10;;
40459;SDS011;26164;51.138;16.952;2024-02-26T04:07:40;52.85;;;27.50;;
40459;SDS011;26164;51.138;16.952;2024-02-26T04:10:21;55.47;;;27.20;;
40459;SDS011;26164;51.138;16.952;2024-02-26T04:13:10;57.42;;;27.20;;
40459;SDS011;26164;51.138;16.952;2024-02-26T04:15:43;56.70;;;28.80;;
40459;SDS011;26164;51.138;16.952;2024-02-26T04:18:10;56.85;;;28.38;;
40459;SDS011;26164;51.138;16.952;2024-02-26T04:20:38;58.63;;;29.73;;
40459;SDS011;26164;51.138;16.952;2024-02-26T04:23:08;61.28;;;29.73;;
40459;SDS011;26164;51.138;16.952;2024-02-26T04:25:34;59.75;;;30.25;;
40459;SDS011;26164;51.138;16.952;2024-02-26T04:28:03;62.72;;;29.85;;
40459;SDS011;26164;51.138;16.952;2024-02-26T04:30:37;65.32;;;29.60;;
40459;SDS011;26164;51.138;16.952;2024-02-26T04:33:03;62.25;;;29.92;;
40459;SDS011;26164;51.138;16.952;2024-02-26T04:35:31;62.20;;;29.38;;
40459;SDS011;26164;51.138;16.952;2024-02-26T04:37:57;65.63;;;31.35;;
40459;SDS011;26164;51.138;16.952;2024-02-26T04:40:39;53.78;;;29.10;;
40459;SDS011;26164;51.138;16.952;2024-02-26T04:43:05;57.90;;;29.25;;
40459;SDS011;26164;51.138;16.952;2024-02-26T04:45:32;53.50;;;28.27;;
40459;SDS011;26164;51.138;16.952;2024-02-26T04:48:13;65.07;;;30.25;;
40459;SDS011;26164;51.138;16.952;2024-02-26T04:50:39;60.35;;;28.85;;
40459;SDS011;26164;51.138;16.952;2024-02-26T04:53:06;60.72;;;29.10;;
40459;SDS011;26164;51.138;16.952;2024-02-26T04:55:35;58.97;;;28.70;;
40459;SDS011;26164;51.138;16.952;2024-02-26T04:58:02;57.35;;;29.63;;
40459;SDS011;26164;51.138;16.952;2024-02-26T05:00:44;56.80;;;28.15;;
40459;SDS011;26164;51.138;16.952;2024-02-26T05:03:17;58.70;;;29.58;;
40459;SDS011;26164;51.138;16.952;2024-02-26T05:05:43;58.15;;;28.40;;
40459;SDS011;26164;51.138;16.952;2024-02-26T05:08:29;56.88;;;30.08;;
40459;SDS011;26164;51.138;16.952;2024-02-26T05:11:04;57.97;;;29.80;;
40459;SDS011;26164;51.138;16.952;2024-02-26T05:13:42;61.67;;;29.98;;
40459;SDS011;26164;51.138;16.952;2024-02-26T05:16:51;57.83;;;29.98;;
40459;SDS011;26164;51.138;16.952;2024-02-26T05:20:18;67.57;;;30.50;;
40459;SDS011;26164;51.138;16.952;2024-02-26T05:23:01;68.22;;;32.35;;
40459;SDS011;26164;51.138;16.952;2024-02-26T05:25:52;69.90;;;31.10;;
40459;SDS011;26164;51.138;16.952;2024-02-26T05:43:11;71.43;;;33.35;;
40459;SDS011;26164;51.138;16.952;2024-02-26T05:48:21;62.67;;;30.93;;
40459;SDS011;26164;51.138;16.952;2024-02-26T05:50:48;73.63;;;32.45;;
40459;SDS011;26164;51.138;16.952;2024-02-26T05:57:09;66.70;;;32.53;;
40459;SDS011;26164;51.138;16.952;2024-02-26T05:59:38;63.55;;;31.63;;
40459;SDS011;26164;51.138;16.952;2024-02-26T06:02:07;61.75;;;31.00;;
40459;SDS011;26164;51.138;16.952;2024-02-26T06:04:35;70.93;;;32.60;;
40459;SDS011;26164;51.138;16.952;2024-02-26T06:07:01;70.22;;;31.88;;
40459;SDS011;26164;51.138;16.952;2024-02-26T06:09:31;65.40;;;31.20;;
40459;SDS011;26164;51.138;16.952;2024-02-26T06:11:57;69.47;;;32.85;;
40459;SDS011;26164;51.138;16.952;2024-02-26T06:14:26;63.50;;;30.90;;
40459;SDS011;26164;51.138;16.952;2024-02-26T06:16:54;67.40;;;32.38;;
40459;SDS011;26164;51.138;16.952;2024-02-26T06:19:40;62.35;;;31.60;;
40459;SDS011;26164;51.138;16.952;2024-02-26T06:22:24;57.85;;;29.60;;
40459;SDS011;26164;51.138;16.952;2024-02-26T06:25:07;62.00;;;30.27;;
40459;SDS011;26164;51.138;16.952;2024-02-26T06:31:09;69.60;;;32.22;;
40459;SDS011;26164;51.138;16.952;2024-02-26T06:33:36;65.10;;;30.65;;
40459;SDS011;26164;51.138;16.952;2024-02-26T06:36:07;70.28;;;32.60;;
40459;SDS011;26164;51.138;16.952;2024-02-26T06:38:52;69.15;;;32.30;;
40459;SDS011;26164;51.138;16.952;2024-02-26T06:41:48;72.15;;;31.52;;
40459;SDS011;26164;51.138;16.952;2024-02-26T18:22:20;15.50;;;6.18;;
